createdAt,value
2023-03-07T00:00:14.764Z,2.49
2023-03-07T00:01:14.727Z,2.51
2023-03-07T00:02:14.856Z,2.46
2023-03-07T00:03:14.734Z,2.37
2023-03-07T00:04:14.723Z,2.40
2023-03-07T00:05:14.704Z,2.41
2023-03-07T00:06:14.703Z,2.38
2023-03-07T00:07:14.709Z,2.30
2023-03-07T00:08:14.683Z,2.30
2023-03-07T00:09:14.686Z,2.33
2023-03-07T00:10:14.661Z,2.41
2023-03-07T00:11:14.656Z,2.45
2023-03-07T00:12:14.639Z,2.40
2023-03-07T00:13:14.756Z,2.37
2023-03-07T00:14:14.623Z,2.53
2023-03-07T00:15:14.621Z,2.48
2023-03-07T00:16:14.653Z,2.40
2023-03-07T00:17:14.602Z,2.26
2023-03-07T00:18:14.627Z,2.45
2023-03-07T00:19:14.594Z,2.33
2023-03-07T00:20:14.593Z,2.27
2023-03-07T00:21:14.598Z,2.44
2023-03-07T00:22:14.784Z,2.38
2023-03-07T00:23:15.590Z,2.41
2023-03-07T00:24:14.556Z,2.34
2023-03-07T00:25:14.543Z,2.38
2023-03-07T00:26:14.527Z,2.38
2023-03-07T00:27:14.557Z,2.48
2023-03-07T00:28:14.540Z,2.41
2023-03-07T00:29:14.518Z,2.35
2023-03-07T00:30:14.502Z,2.33
2023-03-07T00:31:14.522Z,2.33
2023-03-07T00:32:14.522Z,2.38
2023-03-07T00:33:14.491Z,2.30
2023-03-07T00:34:14.483Z,2.34
2023-03-07T00:35:14.459Z,2.33
2023-03-07T00:36:14.453Z,2.35
2023-03-07T00:37:14.453Z,2.41
2023-03-07T00:38:14.456Z,2.41
2023-03-07T00:39:14.451Z,2.35
2023-03-07T00:40:14.421Z,2.34
2023-03-07T00:41:14.419Z,2.31
2023-03-07T00:42:14.400Z,2.35
2023-03-07T00:43:14.438Z,2.31
2023-03-07T00:44:14.403Z,2.30
2023-03-07T00:45:14.379Z,2.27
2023-03-07T00:46:14.379Z,2.37
2023-03-07T00:47:14.367Z,2.28
2023-03-07T00:48:14.391Z,2.27
2023-03-07T00:49:14.343Z,2.28
2023-03-07T00:50:14.339Z,2.26
2023-03-07T00:51:14.340Z,2.27
2023-03-07T00:52:14.329Z,2.35
2023-03-07T00:53:14.349Z,2.20
2023-03-07T00:54:14.313Z,2.23
2023-03-07T00:55:14.366Z,2.20
2023-03-07T00:56:14.301Z,2.16
2023-03-07T00:57:14.299Z,2.17
2023-03-07T00:58:14.315Z,2.28
2023-03-07T00:59:14.270Z,2.27
2023-03-07T01:00:14.262Z,2.19
2023-03-07T01:01:14.319Z,2.20
2023-03-07T01:02:14.247Z,2.20
2023-03-07T01:03:14.250Z,2.12
2023-03-07T01:04:14.265Z,2.13
2023-03-07T01:05:14.223Z,2.19
2023-03-07T01:06:14.229Z,2.02
2023-03-07T01:07:14.212Z,2.19
2023-03-07T01:08:14.222Z,2.08
2023-03-07T01:09:14.194Z,2.12
2023-03-07T01:10:14.184Z,1.99
2023-03-07T01:11:14.187Z,2.09
2023-03-07T01:12:14.168Z,1.97
2023-03-07T01:13:14.180Z,1.98
2023-03-07T01:14:14.193Z,1.97
2023-03-07T01:15:14.151Z,2.02
2023-03-07T01:16:14.245Z,1.93
2023-03-07T01:17:14.134Z,2.01
2023-03-07T01:18:14.167Z,1.91
2023-03-07T01:19:14.122Z,1.87
2023-03-07T01:20:14.115Z,1.99
2023-03-07T01:21:14.103Z,1.89
2023-03-07T01:22:14.093Z,1.87
2023-03-07T01:23:14.134Z,1.97
2023-03-07T01:24:14.107Z,1.91
2023-03-07T01:25:14.076Z,1.85
2023-03-07T01:26:14.059Z,1.90
2023-03-07T01:27:15.046Z,1.90
2023-03-07T01:28:14.065Z,1.82
2023-03-07T01:29:14.039Z,1.87
2023-03-07T01:30:14.041Z,1.89
2023-03-07T01:31:14.014Z,1.91
2023-03-07T01:32:14.128Z,1.89
2023-03-07T01:33:13.996Z,1.82
2023-03-07T01:34:14.048Z,1.90
2023-03-07T01:35:13.987Z,1.89
2023-03-07T01:36:14.115Z,1.87
2023-03-07T01:37:13.968Z,1.91
2023-03-07T01:38:13.957Z,1.87
2023-03-07T01:39:13.969Z,1.82
2023-03-07T01:40:13.947Z,1.85
2023-03-07T01:41:13.936Z,1.72
2023-03-07T01:42:13.935Z,1.82
2023-03-07T01:43:13.923Z,1.80
2023-03-07T01:44:13.929Z,1.82
2023-03-07T01:45:13.901Z,1.82
2023-03-07T01:46:13.907Z,1.72
2023-03-07T01:47:13.886Z,1.80
2023-03-07T01:48:13.887Z,1.75
2023-03-07T01:49:13.893Z,1.79
2023-03-07T01:50:13.936Z,1.68
2023-03-07T01:51:13.855Z,1.76
2023-03-07T01:52:13.856Z,1.73
2023-03-07T01:53:13.845Z,1.75
2023-03-07T01:54:13.849Z,1.78
2023-03-07T01:55:13.817Z,1.68
2023-03-07T01:56:13.829Z,1.82
2023-03-07T01:57:13.805Z,1.78
2023-03-07T01:58:13.808Z,1.76
2023-03-07T01:59:13.819Z,1.82
2023-03-07T02:00:13.796Z,1.76
2023-03-07T02:01:13.837Z,1.76
2023-03-07T02:02:13.767Z,1.72
2023-03-07T02:03:13.775Z,1.80
2023-03-07T02:04:13.835Z,1.80
2023-03-07T02:05:13.759Z,1.68
2023-03-07T02:06:13.745Z,1.62
2023-03-07T02:07:13.728Z,1.75
2023-03-07T02:08:13.718Z,1.64
2023-03-07T02:09:13.735Z,1.71
2023-03-07T02:10:13.707Z,1.71
2023-03-07T02:11:13.691Z,1.73
2023-03-07T02:12:13.686Z,1.76
2023-03-07T02:13:13.693Z,1.68
2023-03-07T02:14:13.688Z,1.76
2023-03-07T02:15:13.660Z,1.75
2023-03-07T02:16:13.715Z,1.80
2023-03-07T02:17:13.645Z,1.76
2023-03-07T02:18:13.640Z,1.71
2023-03-07T02:19:13.663Z,1.75
2023-03-07T02:20:13.628Z,1.76
2023-03-07T02:21:13.609Z,1.65
2023-03-07T02:22:13.618Z,1.78
2023-03-07T02:23:13.647Z,1.68
2023-03-07T02:24:13.640Z,1.68
2023-03-07T02:25:13.601Z,1.71
2023-03-07T02:26:13.574Z,1.72
2023-03-07T02:27:13.573Z,1.72
2023-03-07T02:28:13.561Z,1.72
2023-03-07T02:29:13.574Z,1.73
2023-03-07T02:30:13.552Z,1.69
2023-03-07T02:31:13.580Z,1.65
2023-03-07T02:32:13.534Z,1.65
2023-03-07T02:33:13.519Z,1.73
2023-03-07T02:34:13.526Z,1.60
2023-03-07T02:35:13.526Z,1.69
2023-03-07T02:36:13.513Z,1.64
2023-03-07T02:37:13.491Z,1.68
2023-03-07T02:38:13.489Z,1.71
2023-03-07T02:39:13.503Z,1.71
2023-03-07T02:40:13.464Z,1.69
2023-03-07T02:41:13.470Z,1.78
2023-03-07T02:42:13.468Z,1.65
2023-03-07T02:43:13.456Z,1.64
2023-03-07T02:44:13.467Z,1.75
2023-03-07T02:45:13.427Z,1.65
2023-03-07T02:46:13.483Z,1.69
2023-03-07T02:47:13.419Z,1.64
2023-03-07T02:48:13.409Z,1.60
2023-03-07T02:49:13.413Z,1.80
2023-03-07T02:50:13.384Z,1.72
2023-03-07T02:51:13.379Z,1.71
2023-03-07T02:52:13.373Z,1.69
2023-03-07T02:53:13.369Z,1.73
2023-03-07T02:54:13.381Z,1.65
2023-03-07T02:55:13.357Z,1.75
2023-03-07T02:56:13.344Z,1.72
2023-03-07T02:57:13.338Z,1.78
2023-03-07T02:58:13.325Z,1.72
2023-03-07T02:59:13.339Z,1.71
2023-03-07T03:00:13.331Z,1.72
2023-03-07T03:01:13.383Z,1.72
2023-03-07T03:02:13.287Z,1.75
2023-03-07T03:03:13.292Z,1.87
2023-03-07T03:04:13.300Z,1.80
2023-03-07T03:05:13.304Z,1.68
2023-03-07T03:06:13.277Z,1.73
2023-03-07T03:07:13.252Z,1.73
2023-03-07T03:08:13.244Z,1.76
2023-03-07T03:09:13.240Z,1.72
2023-03-07T03:10:13.240Z,1.72
2023-03-07T03:11:13.218Z,1.75
2023-03-07T03:12:13.210Z,1.87
2023-03-07T03:13:13.202Z,1.78
2023-03-07T03:14:13.192Z,1.85
2023-03-07T03:15:13.227Z,1.72
2023-03-07T03:16:13.238Z,1.71
2023-03-07T03:17:13.173Z,1.78
2023-03-07T03:18:13.162Z,1.75
2023-03-07T03:19:13.175Z,1.72
2023-03-07T03:20:13.243Z,1.75
2023-03-07T03:21:13.137Z,1.73
2023-03-07T03:22:13.144Z,1.79
2023-03-07T03:23:13.128Z,1.83
2023-03-07T03:24:13.138Z,1.83
2023-03-07T03:25:13.115Z,1.73
2023-03-07T03:26:13.109Z,1.79
2023-03-07T03:27:13.097Z,1.68
2023-03-07T03:28:13.082Z,1.87
2023-03-07T03:29:13.104Z,1.76
2023-03-07T03:30:13.080Z,1.83
2023-03-07T03:31:13.104Z,1.75
2023-03-07T03:32:13.066Z,1.72
2023-03-07T03:33:13.052Z,1.79
2023-03-07T03:34:13.053Z,1.71
2023-03-07T03:35:13.025Z,1.71
2023-03-07T03:36:13.044Z,1.82
2023-03-07T03:37:13.005Z,1.76
2023-03-07T03:38:12.997Z,1.72
2023-03-07T03:39:12.989Z,1.65
2023-03-07T03:40:12.981Z,1.72
2023-03-07T03:41:13.066Z,1.87
2023-03-07T03:42:12.975Z,1.75
2023-03-07T03:43:12.956Z,1.75
2023-03-07T03:44:12.948Z,1.85
2023-03-07T03:45:12.947Z,1.80
2023-03-07T03:46:13.014Z,1.90
2023-03-07T03:47:12.931Z,1.76
2023-03-07T03:48:12.915Z,1.85
2023-03-07T03:49:12.921Z,1.94
2023-03-07T03:50:12.892Z,1.82
2023-03-07T03:51:12.887Z,1.85
2023-03-07T03:52:12.886Z,1.85
2023-03-07T03:53:12.888Z,1.85
2023-03-07T03:54:12.890Z,1.72
2023-03-07T03:55:12.862Z,1.73
2023-03-07T03:56:13.046Z,1.87
2023-03-07T03:57:12.859Z,1.82
2023-03-07T03:58:12.822Z,1.83
2023-03-07T03:59:13.847Z,1.83
2023-03-07T04:00:12.845Z,1.82
2023-03-07T04:01:12.834Z,1.93
2023-03-07T04:02:12.872Z,1.90
2023-03-07T04:03:12.791Z,1.85
2023-03-07T04:04:12.792Z,1.91
2023-03-07T04:05:12.779Z,1.85
2023-03-07T04:06:12.786Z,1.76
2023-03-07T04:07:12.757Z,1.83
2023-03-07T04:08:12.748Z,1.85
2023-03-07T04:09:12.765Z,1.89
2023-03-07T04:10:12.738Z,1.85
2023-03-07T04:11:12.729Z,1.85
2023-03-07T04:12:12.708Z,1.87
2023-03-07T04:13:12.707Z,1.83
2023-03-07T04:14:12.726Z,1.94
2023-03-07T04:15:12.699Z,1.87
2023-03-07T04:16:12.698Z,1.90
2023-03-07T04:18:26.909Z,1.97
2023-03-07T04:19:29.340Z,1.93
2023-03-07T04:20:26.959Z,1.82
2023-03-07T04:21:26.897Z,1.97
2023-03-07T04:22:28.018Z,1.89
2023-03-07T04:23:28.014Z,1.98
2023-03-07T04:24:28.017Z,1.94
2023-03-07T04:25:27.996Z,1.91
2023-03-07T04:26:27.988Z,2.02
2023-03-07T04:27:27.985Z,1.90
2023-03-07T04:28:27.980Z,1.87
2023-03-07T04:29:28.012Z,1.85
2023-03-07T04:30:27.963Z,1.97
2023-03-07T04:31:27.994Z,1.91
2023-03-07T04:32:27.985Z,1.94
2023-03-07T04:33:27.962Z,1.93
2023-03-07T04:34:27.984Z,2.02
2023-03-07T04:35:27.927Z,2.02
2023-03-07T04:36:27.914Z,1.97
2023-03-07T04:37:27.912Z,2.10
2023-03-07T04:38:27.887Z,2.02
2023-03-07T04:39:28.918Z,1.91
2023-03-07T04:40:27.864Z,1.99
2023-03-07T04:41:27.918Z,1.99
2023-03-07T04:42:27.853Z,2.10
2023-03-07T04:43:27.878Z,2.10
2023-03-07T04:44:27.851Z,2.02
2023-03-07T04:45:27.902Z,2.15
2023-03-07T04:46:27.862Z,2.04
2023-03-07T04:47:27.824Z,2.01
2023-03-07T04:48:27.816Z,2.17
2023-03-07T04:49:27.823Z,2.20
2023-03-07T04:50:27.796Z,2.10
2023-03-07T04:51:27.797Z,2.13
2023-03-07T04:52:27.793Z,2.10
2023-03-07T04:53:27.777Z,2.15
2023-03-07T04:54:27.796Z,2.17
2023-03-07T04:55:27.763Z,2.09
2023-03-07T04:56:27.775Z,2.17
2023-03-07T04:57:27.769Z,2.16
2023-03-07T04:58:27.745Z,2.23
2023-03-07T04:59:27.748Z,2.10
2023-03-07T05:00:27.716Z,2.16
2023-03-07T05:01:27.828Z,2.28
2023-03-07T05:02:27.705Z,2.15
2023-03-07T05:03:27.704Z,2.20
2023-03-07T05:04:27.750Z,2.26
2023-03-07T05:05:27.697Z,2.30
2023-03-07T05:06:27.664Z,2.30
2023-03-07T05:07:28.663Z,2.26
2023-03-07T05:08:28.632Z,2.30
2023-03-07T05:09:27.655Z,2.19
2023-03-07T05:10:27.670Z,2.28
2023-03-07T05:11:27.647Z,2.19
2023-03-07T05:12:27.629Z,2.22
2023-03-07T05:13:27.618Z,2.33
2023-03-07T05:14:27.609Z,2.27
2023-03-07T05:15:27.643Z,2.31
2023-03-07T05:16:27.613Z,2.30
2023-03-07T05:17:27.575Z,2.33
2023-03-07T05:18:27.575Z,2.30
2023-03-07T05:19:27.570Z,2.37
2023-03-07T05:20:27.559Z,2.27
2023-03-07T05:21:27.614Z,2.34
2023-03-07T05:22:27.588Z,2.31
2023-03-07T05:23:27.546Z,2.33
2023-03-07T05:24:27.531Z,2.23
2023-03-07T05:25:27.609Z,2.26
2023-03-07T05:26:27.534Z,2.28
2023-03-07T05:27:27.510Z,2.31
2023-03-07T05:28:27.496Z,2.28
2023-03-07T05:29:27.496Z,2.31
2023-03-07T05:30:27.478Z,2.30
2023-03-07T05:31:27.521Z,2.28
2023-03-07T05:32:27.488Z,2.34
2023-03-07T05:33:27.468Z,2.34
2023-03-07T05:34:27.491Z,2.30
2023-03-07T05:35:27.485Z,2.33
2023-03-07T05:36:27.430Z,2.22
2023-03-07T05:37:27.420Z,2.33
2023-03-07T05:38:27.416Z,2.27
2023-03-07T05:39:27.406Z,2.28
2023-03-07T05:40:27.428Z,2.31
2023-03-07T05:41:27.386Z,2.34
2023-03-07T05:42:27.382Z,2.35
2023-03-07T05:43:27.382Z,2.28
2023-03-07T05:44:27.363Z,2.26
2023-03-07T05:45:27.376Z,2.31
2023-03-07T05:46:27.389Z,2.38
2023-03-07T05:47:27.345Z,2.31
2023-03-07T05:48:27.328Z,2.38
2023-03-07T05:49:27.326Z,2.41
2023-03-07T05:50:27.344Z,2.35
2023-03-07T05:51:27.310Z,2.49
2023-03-07T05:52:27.311Z,2.40
2023-03-07T05:53:27.307Z,2.45
2023-03-07T05:54:27.304Z,2.37
2023-03-07T05:55:27.302Z,2.48
2023-03-07T05:56:27.287Z,2.40
2023-03-07T05:57:27.265Z,2.56
2023-03-07T05:58:27.252Z,2.53
2023-03-07T05:59:27.261Z,2.35
2023-03-07T06:00:27.255Z,2.49
2023-03-07T06:01:27.252Z,2.48
2023-03-07T06:02:27.234Z,2.51
2023-03-07T06:03:27.252Z,2.48
2023-03-07T06:04:27.203Z,2.56
2023-03-07T06:05:27.216Z,2.56
2023-03-07T06:06:27.219Z,2.51
2023-03-07T06:07:27.187Z,2.45
2023-03-07T06:08:27.165Z,2.51
2023-03-07T06:09:27.176Z,2.52
2023-03-07T06:10:27.234Z,2.64
2023-03-07T06:11:28.125Z,2.58
2023-03-07T06:12:27.140Z,2.61
2023-03-07T06:13:27.121Z,2.63
2023-03-07T06:14:27.148Z,2.55
2023-03-07T06:15:27.145Z,2.61
2023-03-07T06:16:27.117Z,2.59
2023-03-07T06:17:27.097Z,2.59
2023-03-07T06:18:27.091Z,2.67
2023-03-07T06:19:27.108Z,2.64
2023-03-07T06:20:27.097Z,2.69
2023-03-07T06:21:27.080Z,2.67
2023-03-07T06:22:27.055Z,2.69
2023-03-07T06:23:27.057Z,2.59
2023-03-07T06:24:27.042Z,2.63
2023-03-07T06:25:28.050Z,2.66
2023-03-07T06:26:27.028Z,2.64
2023-03-07T06:27:27.010Z,2.73
2023-03-07T06:28:27.113Z,2.76
2023-03-07T06:29:27.013Z,2.84
2023-03-07T06:30:27.010Z,2.71
2023-03-07T06:31:27.032Z,2.81
2023-03-07T06:32:27.040Z,2.73
2023-03-07T06:33:26.961Z,2.71
2023-03-07T06:34:26.961Z,2.84
2023-03-07T06:35:26.950Z,2.76
2023-03-07T06:36:26.950Z,2.84
2023-03-07T06:37:26.992Z,2.79
2023-03-07T06:38:26.929Z,2.98
2023-03-07T06:39:26.917Z,2.81
2023-03-07T06:40:26.934Z,2.81
2023-03-07T06:41:26.904Z,2.91
2023-03-07T06:42:26.907Z,2.88
2023-03-07T06:43:26.882Z,2.92
2023-03-07T06:44:26.874Z,2.81
2023-03-07T06:45:26.963Z,2.89
2023-03-07T06:46:26.849Z,2.95
2023-03-07T06:47:26.856Z,3.03
2023-03-07T06:48:26.886Z,2.98
2023-03-07T06:49:26.828Z,2.97
2023-03-07T06:50:35.141Z,3.10
2023-03-07T06:51:28.814Z,3.10
2023-03-07T06:52:26.816Z,3.16
2023-03-07T06:53:26.793Z,3.13
2023-03-07T06:54:26.789Z,3.16
2023-03-07T06:55:26.811Z,3.13
2023-03-07T06:56:27.771Z,3.09
2023-03-07T06:57:26.769Z,3.16
2023-03-07T06:58:26.747Z,3.20
2023-03-07T06:59:26.737Z,3.18
2023-03-07T07:00:26.743Z,3.16
2023-03-07T07:01:26.747Z,3.21
2023-03-07T07:02:26.872Z,3.27
2023-03-07T07:03:26.704Z,3.21
2023-03-07T07:04:26.693Z,3.30
2023-03-07T07:05:26.685Z,3.18
2023-03-07T07:06:26.712Z,3.21
2023-03-07T07:07:26.693Z,3.18
2023-03-07T07:08:26.656Z,3.13
2023-03-07T07:09:26.648Z,3.27
2023-03-07T07:10:26.636Z,3.28
2023-03-07T07:11:26.642Z,3.39
2023-03-07T07:12:26.672Z,3.34
2023-03-07T07:13:26.622Z,3.27
2023-03-07T07:14:26.604Z,3.30
2023-03-07T07:15:26.597Z,3.39
2023-03-07T07:16:26.619Z,3.36
2023-03-07T07:17:26.594Z,3.40
2023-03-07T07:18:27.564Z,3.46
2023-03-07T07:19:26.555Z,3.46
2023-03-07T07:20:26.546Z,3.39
2023-03-07T07:21:26.552Z,3.36
2023-03-07T07:22:26.521Z,3.39
2023-03-07T07:23:26.531Z,3.53
2023-03-07T07:24:26.514Z,3.52
2023-03-07T07:25:26.502Z,3.46
2023-03-07T07:26:26.524Z,3.46
2023-03-07T07:27:26.483Z,3.47
2023-03-07T07:28:26.473Z,3.49
2023-03-07T07:29:26.465Z,3.46
2023-03-07T07:30:26.988Z,3.52
2023-03-07T07:31:26.501Z,3.52
2023-03-07T07:32:26.621Z,3.58
2023-03-07T07:33:26.629Z,3.52
2023-03-07T07:34:26.423Z,3.71
2023-03-07T07:35:26.406Z,3.75
2023-03-07T07:36:27.414Z,3.65
2023-03-07T07:37:26.403Z,3.57
2023-03-07T07:38:26.386Z,3.52
2023-03-07T07:39:26.376Z,3.67
2023-03-07T07:40:26.353Z,3.57
2023-03-07T07:41:27.383Z,3.67
2023-03-07T07:42:26.342Z,3.72
2023-03-07T07:43:26.331Z,3.65
2023-03-07T07:44:26.372Z,3.72
2023-03-07T07:45:26.320Z,3.71
2023-03-07T07:46:26.325Z,3.61
2023-03-07T07:47:26.312Z,3.62
2023-03-07T07:48:26.330Z,3.62
2023-03-07T07:49:26.291Z,3.72
2023-03-07T07:50:26.281Z,3.62
2023-03-07T07:51:26.293Z,3.68
2023-03-07T07:52:26.244Z,3.61
2023-03-07T07:53:26.229Z,3.79
2023-03-07T07:54:26.226Z,3.75
2023-03-07T07:55:26.258Z,3.70
2023-03-07T07:56:26.229Z,3.79
2023-03-07T07:57:26.212Z,3.68
2023-03-07T07:58:26.200Z,3.79
2023-03-07T07:59:26.202Z,3.80
2023-03-07T08:00:26.178Z,3.79
2023-03-07T08:01:26.181Z,3.85
2023-03-07T08:02:26.196Z,3.78
2023-03-07T08:03:26.205Z,3.80
2023-03-07T08:04:26.118Z,3.79
2023-03-07T08:05:27.109Z,3.83
2023-03-07T08:06:26.123Z,3.89
2023-03-07T08:07:26.097Z,3.90
2023-03-07T08:08:26.133Z,3.94
2023-03-07T08:09:26.083Z,3.96
2023-03-07T08:10:26.074Z,4.00
2023-03-07T08:11:26.076Z,3.89
2023-03-07T08:12:27.925Z,3.96
2023-03-07T08:13:27.038Z,3.92
2023-03-07T08:14:26.028Z,3.94
2023-03-07T08:15:26.016Z,4.01
2023-03-07T08:16:26.046Z,3.92
2023-03-07T08:17:25.988Z,3.89
2023-03-07T08:18:25.978Z,3.86
2023-03-07T08:19:25.970Z,3.97
2023-03-07T08:20:25.962Z,3.90
2023-03-07T08:21:25.983Z,3.86
2023-03-07T08:22:25.935Z,3.88
2023-03-07T08:23:25.927Z,3.98
2023-03-07T08:24:39.728Z,3.94
2023-03-07T08:25:27.906Z,3.88
2023-03-07T08:26:25.921Z,3.90
2023-03-07T08:27:25.887Z,4.01
2023-03-07T08:28:25.884Z,3.90
2023-03-07T08:29:25.880Z,3.96
2023-03-07T08:30:25.940Z,3.94
2023-03-07T08:31:25.954Z,3.98
2023-03-07T08:32:25.886Z,3.92
2023-03-07T08:33:25.831Z,4.04
2023-03-07T08:34:25.846Z,3.96
2023-03-07T08:35:25.875Z,3.94
2023-03-07T08:36:25.819Z,4.12
2023-03-07T08:37:25.906Z,4.08
2023-03-07T08:38:27.787Z,4.08
2023-03-07T08:39:26.768Z,4.06
2023-03-07T08:40:25.766Z,4.06
2023-03-07T08:41:25.753Z,4.12
2023-03-07T08:42:25.812Z,4.08
2023-03-07T08:43:26.758Z,4.07
2023-03-07T08:44:25.722Z,4.10
2023-03-07T08:45:25.712Z,4.18
2023-03-07T08:46:25.774Z,4.08
2023-03-07T08:47:25.705Z,4.08
2023-03-07T08:48:25.677Z,4.16
2023-03-07T08:49:25.695Z,4.18
2023-03-07T08:50:25.974Z,4.06
2023-03-07T08:51:25.682Z,4.08
2023-03-07T08:52:25.632Z,4.10
2023-03-07T08:53:25.624Z,4.07
2023-03-07T08:54:25.617Z,4.18
2023-03-07T08:55:25.602Z,4.12
2023-03-07T08:56:25.610Z,4.10
2023-03-07T08:57:25.581Z,4.18
2023-03-07T08:58:25.576Z,4.04
2023-03-07T08:59:25.550Z,4.15
2023-03-07T09:00:25.549Z,4.21
2023-03-07T09:01:25.609Z,4.14
2023-03-07T09:02:25.526Z,4.16
2023-03-07T09:03:25.510Z,4.19
2023-03-07T09:04:25.526Z,4.34
2023-03-07T09:05:25.490Z,4.33
2023-03-07T09:06:25.504Z,4.25
2023-03-07T09:07:25.481Z,4.26
2023-03-07T09:08:25.473Z,4.26
2023-03-07T09:09:25.455Z,4.22
2023-03-07T09:10:25.426Z,4.32
2023-03-07T09:11:25.421Z,4.29
2023-03-07T09:12:25.430Z,4.32
2023-03-07T09:13:25.396Z,4.34
2023-03-07T09:14:25.397Z,4.39
2023-03-07T09:15:25.390Z,4.36
2023-03-07T09:16:25.433Z,4.39
2023-03-07T09:17:25.353Z,4.40
2023-03-07T09:18:25.348Z,4.40
2023-03-07T09:19:26.167Z,4.40
2023-03-07T09:20:25.335Z,4.42
2023-03-07T09:21:25.315Z,4.42
2023-03-07T09:22:25.303Z,4.43
2023-03-07T09:23:25.294Z,4.32
2023-03-07T09:24:25.277Z,4.39
2023-03-07T09:25:25.265Z,4.47
2023-03-07T09:26:25.317Z,4.43
2023-03-07T09:27:25.247Z,4.43
2023-03-07T09:28:25.229Z,4.44
2023-03-07T09:29:25.237Z,4.51
2023-03-07T09:30:25.207Z,4.54
2023-03-07T09:31:25.243Z,4.67
2023-03-07T09:32:25.219Z,4.76
2023-03-07T09:33:25.171Z,4.79
2023-03-07T09:34:25.165Z,4.73
2023-03-07T09:35:25.150Z,4.73
2023-03-07T09:36:25.155Z,4.83
2023-03-07T09:37:25.136Z,4.76
2023-03-07T09:38:25.123Z,4.80
2023-03-07T09:39:25.112Z,4.86
2023-03-07T09:40:25.102Z,4.84
2023-03-07T09:41:25.141Z,4.96
2023-03-07T09:42:25.093Z,4.80
2023-03-07T09:43:25.070Z,4.89
2023-03-07T09:44:25.049Z,4.91
2023-03-07T09:45:25.072Z,4.89
2023-03-07T09:46:25.075Z,4.89
2023-03-07T09:47:25.027Z,4.83
2023-03-07T09:48:25.014Z,4.98
2023-03-07T09:49:24.998Z,4.94
2023-03-07T09:50:25.013Z,5.07
2023-03-07T09:51:25.020Z,5.09
2023-03-07T09:52:24.979Z,5.02
2023-03-07T09:53:24.966Z,5.13
2023-03-07T09:54:24.952Z,5.09
2023-03-07T09:55:24.935Z,5.09
2023-03-07T09:56:24.954Z,5.19
2023-03-07T09:57:24.913Z,5.19
2023-03-07T09:58:24.914Z,5.07
2023-03-07T09:59:24.891Z,5.10
2023-03-07T10:00:24.879Z,5.27
2023-03-07T10:01:24.901Z,5.20
2023-03-07T10:02:24.862Z,5.23
2023-03-07T10:03:24.901Z,5.20
2023-03-07T10:04:24.966Z,5.19
2023-03-07T10:05:24.838Z,5.13
2023-03-07T10:06:24.845Z,5.20
2023-03-07T10:07:24.828Z,5.16
2023-03-07T10:08:24.839Z,5.22
2023-03-07T10:09:24.830Z,5.10
2023-03-07T10:10:24.769Z,5.12
2023-03-07T10:11:24.853Z,5.14
2023-03-07T10:12:24.786Z,5.12
2023-03-07T10:13:24.750Z,5.09
2023-03-07T10:14:24.745Z,5.01
2023-03-07T10:15:24.735Z,5.09
2023-03-07T10:16:24.841Z,5.01
2023-03-07T10:17:24.730Z,5.07
2023-03-07T10:18:56.588Z,5.13
2023-03-07T10:19:24.690Z,5.09
2023-03-07T10:20:24.679Z,5.07
2023-03-07T10:21:24.651Z,5.12
2023-03-07T10:22:25.690Z,4.99
2023-03-07T10:23:24.642Z,5.17
2023-03-07T10:24:24.619Z,5.16
2023-03-07T10:25:24.626Z,5.19
2023-03-07T10:26:24.609Z,5.22
2023-03-07T10:27:24.608Z,5.17
2023-03-07T10:28:24.592Z,5.17
2023-03-07T10:29:24.569Z,5.19
2023-03-07T10:30:24.560Z,5.27
2023-03-07T10:31:24.563Z,5.23
2023-03-07T10:32:24.603Z,5.25
2023-03-07T10:33:24.523Z,5.27
2023-03-07T10:34:27.339Z,5.31
2023-03-07T10:35:25.506Z,5.43
2023-03-07T10:36:24.485Z,5.40
2023-03-07T10:37:24.495Z,5.30
2023-03-07T10:38:24.468Z,5.34
2023-03-07T10:39:24.457Z,5.32
2023-03-07T10:40:24.449Z,5.35
2023-03-07T10:41:24.438Z,5.31
2023-03-07T10:42:24.445Z,5.22
2023-03-07T10:43:24.412Z,5.27
2023-03-07T10:44:24.398Z,5.28
2023-03-07T10:45:24.398Z,5.27
2023-03-07T10:46:26.514Z,5.27
2023-03-07T10:47:25.441Z,5.23
2023-03-07T10:48:24.362Z,5.30
2023-03-07T10:49:24.391Z,5.28
2023-03-07T10:50:24.338Z,5.31
2023-03-07T10:51:24.320Z,5.38
2023-03-07T10:52:24.307Z,5.27
2023-03-07T10:53:24.300Z,5.32
2023-03-07T10:54:24.318Z,5.30
2023-03-07T10:55:24.280Z,5.34
2023-03-07T10:56:24.271Z,5.34
2023-03-07T10:57:24.271Z,5.45
2023-03-07T10:58:24.254Z,5.48
2023-03-07T10:59:24.269Z,5.45
2023-03-07T11:00:24.222Z,5.48
2023-03-07T11:01:24.283Z,5.55
2023-03-07T11:02:24.225Z,5.40
2023-03-07T11:03:24.198Z,5.48
2023-03-07T11:04:24.203Z,5.46
2023-03-07T11:05:24.195Z,5.45
2023-03-07T11:06:24.158Z,5.55
2023-03-07T11:07:24.174Z,5.59
2023-03-07T11:08:24.159Z,5.67
2023-03-07T11:09:24.136Z,5.66
2023-03-07T11:10:24.128Z,5.68
2023-03-07T11:11:24.107Z,5.70
2023-03-07T11:12:24.120Z,5.68
2023-03-07T11:13:24.089Z,5.70
2023-03-07T11:14:24.091Z,5.77
2023-03-07T11:15:24.065Z,5.78
2023-03-07T11:16:24.248Z,5.68
2023-03-07T11:17:24.078Z,5.77
2023-03-07T11:18:24.040Z,5.68
2023-03-07T11:19:24.030Z,5.75
2023-03-07T11:20:24.030Z,5.74
2023-03-07T11:21:24.061Z,5.75
2023-03-07T11:22:24.020Z,5.78
2023-03-07T11:23:23.987Z,5.88
2023-03-07T11:24:24.017Z,5.88
2023-03-07T11:25:23.962Z,5.96
2023-03-07T11:26:23.957Z,5.93
2023-03-07T11:27:23.986Z,5.88
2023-03-07T11:28:23.932Z,6.01
2023-03-07T11:29:23.924Z,6.07
2023-03-07T11:30:23.926Z,6.04
2023-03-07T11:31:23.927Z,6.06
2023-03-07T11:32:23.933Z,5.91
2023-03-07T11:33:24.873Z,6.01
2023-03-07T11:34:23.866Z,6.06
2023-03-07T11:35:23.917Z,6.00
2023-03-07T11:36:23.849Z,6.07
2023-03-07T11:37:23.957Z,6.03
2023-03-07T11:38:23.826Z,5.95
2023-03-07T11:39:23.815Z,6.04
2023-03-07T11:40:23.818Z,5.85
2023-03-07T11:41:23.800Z,5.86
2023-03-07T11:42:23.832Z,5.88
2023-03-07T11:43:23.774Z,5.82
2023-03-07T11:44:23.771Z,5.78
2023-03-07T11:45:23.759Z,6.00
2023-03-07T11:46:23.826Z,5.88
2023-03-07T11:47:23.758Z,5.96
2023-03-07T11:48:23.743Z,6.07
2023-03-07T11:49:23.723Z,6.03
2023-03-07T11:50:24.700Z,6.10
2023-03-07T11:51:23.721Z,6.04
2023-03-07T11:52:23.688Z,6.09
2023-03-07T11:53:23.694Z,6.09
2023-03-07T11:54:23.658Z,6.14
2023-03-07T11:55:23.660Z,6.09
2023-03-07T11:56:23.685Z,6.19
2023-03-07T11:57:23.658Z,6.13
2023-03-07T11:58:23.628Z,6.18
2023-03-07T11:59:23.622Z,6.21
2023-03-07T12:00:23.634Z,6.19
2023-03-07T12:01:23.616Z,6.18
2023-03-07T12:02:23.626Z,6.07
2023-03-07T12:03:23.598Z,6.21
2023-03-07T12:04:23.572Z,6.21
2023-03-07T12:05:23.676Z,6.03
2023-03-07T12:06:23.578Z,5.96
2023-03-07T12:07:23.567Z,6.10
2023-03-07T12:08:23.540Z,6.09
2023-03-07T12:09:23.567Z,6.21
2023-03-07T12:10:23.535Z,6.19
2023-03-07T12:11:23.514Z,6.21
2023-03-07T12:12:23.523Z,6.11
2023-03-07T12:13:23.496Z,6.14
2023-03-07T12:14:23.494Z,6.03
2023-03-07T12:15:23.462Z,6.06
2023-03-07T12:16:23.554Z,6.04
2023-03-07T12:17:23.487Z,6.01
2023-03-07T12:18:23.440Z,6.06
2023-03-07T12:19:23.414Z,6.10
2023-03-07T12:20:23.411Z,6.03
2023-03-07T12:21:23.406Z,6.13
2023-03-07T12:22:23.405Z,6.04
2023-03-07T12:23:23.382Z,6.01
2023-03-07T12:24:23.387Z,5.86
2023-03-07T12:25:23.372Z,6.03
2023-03-07T12:26:24.349Z,6.14
2023-03-07T12:27:26.247Z,6.10
2023-03-07T12:28:23.325Z,6.00
2023-03-07T12:29:23.318Z,6.11
2023-03-07T12:30:23.304Z,6.04
2023-03-07T12:31:23.354Z,5.96
2023-03-07T12:32:23.501Z,6.01
2023-03-07T12:33:25.674Z,5.95
2023-03-07T12:34:23.274Z,6.09
2023-03-07T12:35:23.347Z,6.04
2023-03-07T12:36:23.308Z,6.03
2023-03-07T12:37:23.259Z,6.03
2023-03-07T12:38:23.219Z,6.03
2023-03-07T12:39:23.210Z,6.00
2023-03-07T12:40:23.209Z,5.89
2023-03-07T12:41:23.204Z,5.92
2023-03-07T12:42:23.204Z,5.89
2023-03-07T12:43:23.177Z,5.88
2023-03-07T12:44:23.153Z,5.93
2023-03-07T12:45:24.858Z,5.89
2023-03-07T12:46:23.231Z,6.01
2023-03-07T12:47:23.144Z,5.89
2023-03-07T12:48:23.122Z,5.88
2023-03-07T12:49:23.122Z,5.91
2023-03-07T12:50:23.100Z,5.82
2023-03-07T12:51:24.572Z,5.71
2023-03-07T12:52:23.100Z,5.74
2023-03-07T12:53:23.070Z,5.56
2023-03-07T12:54:23.050Z,5.55
2023-03-07T12:55:23.043Z,5.64
2023-03-07T12:56:23.033Z,5.55
2023-03-07T12:57:24.569Z,5.57
2023-03-07T12:58:23.573Z,5.35
2023-03-07T12:59:23.070Z,5.19
2023-03-07T13:00:22.991Z,4.92
2023-03-07T13:01:23.046Z,4.84
2023-03-07T13:02:22.981Z,4.32
2023-03-07T13:03:22.953Z,4.01
2023-03-07T13:04:23.002Z,3.75
2023-03-07T13:05:22.939Z,3.68
2023-03-07T13:06:22.923Z,3.62
2023-03-07T13:07:22.946Z,3.50
2023-03-07T13:08:22.915Z,3.52
2023-03-07T13:09:22.891Z,3.57
2023-03-07T13:10:22.901Z,3.60
2023-03-07T13:11:23.019Z,3.47
2023-03-07T13:12:22.844Z,3.24
2023-03-07T13:13:24.467Z,3.13
2023-03-07T13:14:22.829Z,2.98
2023-03-07T13:15:22.819Z,2.97
2023-03-07T13:16:22.839Z,2.85
2023-03-07T13:17:22.818Z,2.84
2023-03-07T13:18:22.805Z,2.79
2023-03-07T13:19:22.777Z,2.69